createdAt,value
2023-01-08T00:01:53.432Z,101338.38
2023-01-08T00:04:22.723Z,101339.22
2023-01-08T00:06:50.635Z,101342.50
2023-01-08T00:09:18.601Z,101334.66
2023-01-08T00:11:49.238Z,101342.34
2023-01-08T00:14:17.232Z,101339.88
2023-01-08T00:16:45.252Z,101315.28
2023-01-08T00:19:13.670Z,101336.47
2023-01-08T00:21:42.962Z,101348.28
2023-01-08T00:24:11.258Z,101343.06
2023-01-08T00:26:39.169Z,101343.09
2023-01-08T00:29:07.107Z,101341.47
2023-01-08T00:31:35.083Z,101343.09
2023-01-08T00:34:03.024Z,101342.25
2023-01-08T00:36:31.004Z,101342.25
2023-01-08T00:39:00.568Z,101338.84
2023-01-08T00:41:28.513Z,101338.03
2023-01-08T00:43:56.444Z,101341.63
2023-01-08T00:46:24.385Z,101338.44
2023-01-08T00:48:52.398Z,101329.13
2023-01-08T00:51:20.376Z,101339.16
2023-01-08T00:53:48.334Z,101339.13
2023-01-08T00:56:17.635Z,101328.09
2023-01-08T00:58:45.549Z,101341.72
2023-01-08T01:01:15.038Z,101330.63
2023-01-08T01:03:43.876Z,101335.00
2023-01-08T01:06:12.795Z,101338.38
2023-01-08T01:08:40.809Z,101327.25
2023-01-08T01:11:10.059Z,101326.19
2023-01-08T01:13:39.395Z,101327.81
2023-01-08T01:16:07.788Z,101328.75
2023-01-08T01:18:35.900Z,101320.94
2023-01-08T01:21:03.909Z,101324.97
2023-01-08T01:23:31.834Z,101329.22
2023-01-08T01:25:59.758Z,101321.56
2023-01-08T01:28:27.692Z,101324.22
2023-01-08T01:30:58.413Z,101324.22
2023-01-08T01:33:26.350Z,101322.72
2023-01-08T01:36:01.715Z,101311.75
2023-01-08T01:38:29.908Z,101309.25
2023-01-08T01:40:57.846Z,101313.63
2023-01-08T01:43:37.000Z,101308.56
2023-01-08T01:46:17.723Z,101311.22
2023-01-08T01:48:46.592Z,101315.38
2023-01-08T01:51:15.306Z,101311.09
2023-01-08T01:53:43.291Z,101313.69
2023-01-08T01:56:11.615Z,101314.63
2023-01-08T01:58:39.736Z,101308.75
2023-01-08T02:01:11.125Z,101297.59
2023-01-08T02:03:40.853Z,101312.78
2023-01-08T02:06:20.637Z,101311.09
2023-01-08T02:08:58.228Z,101311.19
2023-01-08T02:11:31.537Z,101315.47
2023-01-08T02:14:08.029Z,101315.47
2023-01-08T02:16:43.929Z,101307.81
2023-01-08T02:19:20.167Z,101298.44
2023-01-08T02:22:00.085Z,101301.94
2023-01-08T02:24:42.579Z,101298.50
2023-01-08T02:27:14.459Z,101270.47
2023-01-08T02:29:42.465Z,101295.91
2023-01-08T02:32:10.840Z,101305.28
2023-01-08T02:34:38.826Z,101308.63
2023-01-08T02:37:06.974Z,101305.91
2023-01-08T02:39:48.765Z,101297.41
2023-01-08T02:42:25.719Z,101296.56
2023-01-08T02:44:58.001Z,101306.84
2023-01-08T02:47:32.019Z,101309.41
2023-01-08T02:50:15.187Z,101307.81
2023-01-08T02:52:50.334Z,101306.09
2023-01-08T02:55:20.814Z,101302.69
2023-01-08T02:57:50.748Z,101301.06
2023-01-08T03:00:19.798Z,101302.72
2023-01-08T03:02:50.560Z,101305.28
2023-01-08T03:05:23.854Z,101306.44
2023-01-08T03:07:52.586Z,101305.53
2023-01-08T03:10:22.991Z,101306.34
2023-01-08T03:12:56.908Z,101303.03
2023-01-08T03:15:30.336Z,101314.97
2023-01-08T03:18:03.831Z,101313.38
2023-01-08T03:20:34.404Z,101318.66
2023-01-08T03:23:05.251Z,101311.09
2023-01-08T03:25:36.094Z,101317.06
2023-01-08T03:28:09.116Z,101327.09
2023-01-08T03:30:41.437Z,101318.41
2023-01-08T03:33:12.659Z,101307.31
2023-01-08T03:35:45.098Z,101310.63
2023-01-08T03:38:17.052Z,101311.47
2023-01-08T03:40:49.491Z,101305.47
2023-01-08T03:43:20.012Z,101315.75
2023-01-08T03:45:51.364Z,101310.84
2023-01-08T03:48:21.017Z,101298.31
2023-01-08T03:50:49.689Z,101305.91
2023-01-08T03:53:17.946Z,101299.91
2023-01-08T03:55:45.897Z,101296.41
2023-01-08T03:58:13.870Z,101296.34
2023-01-08T04:00:43.184Z,101298.06
2023-01-08T04:03:11.105Z,101287.69
2023-01-08T04:05:39.014Z,101289.34
2023-01-08T04:08:06.932Z,101296.22
2023-01-08T04:10:34.835Z,101300.69
2023-01-08T04:13:02.838Z,101292.94
2023-01-08T04:15:30.969Z,101298.09
2023-01-08T04:18:00.282Z,101304.16
2023-01-08T04:20:28.241Z,101305.88
2023-01-08T04:22:56.151Z,101302.41
2023-01-08T04:25:24.061Z,101300.69
2023-01-08T04:27:51.993Z,101291.56
2023-01-08T04:30:19.927Z,101287.28
2023-01-08T04:32:47.856Z,101283.84
2023-01-08T04:35:17.255Z,101292.28
2023-01-08T04:37:45.171Z,101278.81
2023-01-08T04:40:13.247Z,101284.69
2023-01-08T04:42:41.180Z,101280.38
2023-01-08T04:45:10.075Z,101276.06
2023-01-08T04:47:38.051Z,101277.66
2023-01-08T04:50:06.593Z,101279.31
2023-01-08T04:52:35.944Z,101274.16
2023-01-08T04:55:04.040Z,101279.22
2023-01-08T04:57:32.000Z,101277.47
2023-01-08T04:59:59.918Z,101276.66
2023-01-08T05:02:28.022Z,101279.25
2023-01-08T05:04:56.070Z,101281.06
2023-01-08T05:07:24.064Z,101288.72
2023-01-08T05:09:53.763Z,101299.81
2023-01-08T05:12:21.739Z,101293.88
2023-01-08T05:14:49.663Z,101302.50
2023-01-08T05:17:17.620Z,101304.19
2023-01-08T05:19:45.542Z,101306.72
2023-01-08T05:22:13.465Z,101305.13
2023-01-08T05:24:41.395Z,101311.94
2023-01-08T05:27:10.766Z,101311.97
2023-01-08T05:29:38.697Z,101313.72
2023-01-08T05:32:08.064Z,101317.16
2023-01-08T05:34:35.992Z,101311.25
2023-01-08T05:37:03.925Z,101286.63
2023-01-08T05:39:31.844Z,101311.25
2023-01-08T05:41:59.813Z,101312.16
2023-01-08T05:44:29.086Z,101314.72
2023-01-08T05:46:58.083Z,101319.00
2023-01-08T05:49:26.032Z,101307.13
2023-01-08T05:51:53.965Z,101312.25
2023-01-08T05:54:21.919Z,101308.84
2023-01-08T05:56:49.879Z,101309.81
2023-01-08T05:59:17.787Z,101306.38
2023-01-08T06:01:47.117Z,101315.72
2023-01-08T06:04:15.107Z,101312.34
2023-01-08T06:06:43.099Z,101318.28
2023-01-08T06:09:11.023Z,101324.25
2023-01-08T06:11:39.057Z,101316.66
2023-01-08T06:14:07.032Z,101329.41
2023-01-08T06:16:34.955Z,101334.53
2023-01-08T06:19:04.245Z,101343.03
2023-01-08T06:21:32.360Z,101331.13
2023-01-08T06:24:00.289Z,101336.22
2023-01-08T06:26:28.270Z,101327.72
2023-01-08T06:28:56.174Z,101345.56
2023-01-08T06:31:24.150Z,101338.72
2023-01-08T06:33:52.173Z,101343.84
2023-01-08T06:36:21.520Z,101335.31
2023-01-08T06:38:49.452Z,101334.41
2023-01-08T06:41:17.380Z,101340.28
2023-01-08T06:43:45.338Z,101341.13
2023-01-08T06:46:13.361Z,101341.06
2023-01-08T06:48:41.332Z,101339.38
2023-01-08T06:51:09.338Z,101340.16
2023-01-08T06:53:38.632Z,101344.34
2023-01-08T06:56:09.463Z,101340.84
2023-01-08T06:58:38.835Z,101350.97
2023-01-08T07:01:07.592Z,101354.31
2023-01-08T07:03:35.594Z,101358.56
2023-01-08T07:06:04.050Z,101361.81
2023-01-08T07:08:32.046Z,101356.66
2023-01-08T07:11:04.888Z,101359.97
2023-01-08T07:13:32.873Z,101365.75
2023-01-08T07:16:06.985Z,101357.13
2023-01-08T07:18:36.147Z,101353.75
2023-01-08T07:21:04.351Z,101361.13
2023-01-08T07:23:32.815Z,101351.56
2023-01-08T07:26:01.799Z,101353.13
2023-01-08T07:28:31.454Z,101349.63
2023-01-08T07:30:59.526Z,101353.75
2023-01-08T07:33:27.479Z,101354.41
2023-01-08T07:35:56.631Z,101350.88
2023-01-08T07:38:25.029Z,101344.69
2023-01-08T07:40:53.276Z,101349.50
2023-01-08T07:43:21.528Z,101355.28
2023-01-08T07:45:50.822Z,101357.56
2023-01-08T07:48:18.746Z,101356.47
2023-01-08T07:50:46.762Z,101358.00
2023-01-08T07:53:17.261Z,101362.31
2023-01-08T07:55:45.573Z,101353.97
2023-01-08T07:58:15.376Z,101351.09
2023-01-08T08:00:43.544Z,101337.63
2023-01-08T08:03:12.916Z,101364.81
2023-01-08T08:05:40.919Z,101361.31
2023-01-08T08:08:10.664Z,101356.78
2023-01-08T08:10:39.364Z,101367.28
2023-01-08T08:13:07.758Z,101365.75
2023-01-08T08:15:37.100Z,101370.47
2023-01-08T08:18:06.780Z,101369.44
2023-01-08T08:20:36.499Z,101372.75
2023-01-08T08:23:06.210Z,101370.97
2023-01-08T08:25:34.199Z,101361.69
2023-01-08T08:28:03.395Z,101363.00
2023-01-08T08:30:33.221Z,101360.00
2023-01-08T08:33:03.736Z,101362.28
2023-01-08T08:35:32.523Z,101361.44
2023-01-08T08:38:02.118Z,101363.75
2023-01-08T08:40:30.301Z,101360.34
2023-01-08T08:42:58.959Z,101359.47
2023-01-08T08:45:27.487Z,101366.13
2023-01-08T08:47:55.635Z,101363.56
2023-01-08T08:50:23.691Z,101363.41
2023-01-08T08:52:51.748Z,101364.66
2023-01-08T08:55:21.072Z,101351.66
2023-01-08T08:57:49.482Z,101357.22
2023-01-08T09:00:17.839Z,101350.94
2023-01-08T09:02:46.067Z,101354.19
2023-01-08T09:05:14.142Z,101351.31
2023-01-08T09:07:42.059Z,101349.44
2023-01-08T09:10:10.848Z,101349.19
2023-01-08T09:12:40.169Z,101338.34
2023-01-08T09:15:09.296Z,101318.78
2023-01-08T09:17:37.537Z,101320.28
2023-01-08T09:20:06.564Z,101334.00
2023-01-08T09:22:34.597Z,101317.59
2023-01-08T09:25:02.522Z,101309.72
2023-01-08T09:27:30.442Z,101315.38
2023-01-08T09:29:59.744Z,101302.47
2023-01-08T09:32:27.680Z,101319.41
2023-01-08T09:34:55.608Z,101303.66
2023-01-08T09:37:23.633Z,101302.47
2023-01-08T09:40:01.762Z,101305.63
2023-01-08T09:42:31.750Z,101307.88
2023-01-08T09:45:03.755Z,101304.66
2023-01-08T09:47:36.121Z,101303.19
2023-01-08T09:50:08.527Z,101301.19
2023-01-08T09:52:36.524Z,101292.09
2023-01-08T09:55:04.863Z,101294.34
2023-01-08T09:57:32.830Z,101293.84
2023-01-08T10:00:02.473Z,101291.19
2023-01-08T10:02:41.632Z,101287.97
2023-01-08T10:05:14.560Z,101300.41
2023-01-08T10:07:42.596Z,101269.75
2023-01-08T10:10:20.974Z,101282.66
2023-01-08T10:12:50.598Z,101278.47
2023-01-08T10:15:22.400Z,101270.63
2023-01-08T10:17:56.052Z,101268.47
2023-01-08T10:20:26.321Z,101248.56
2023-01-08T10:22:56.579Z,101253.91
2023-01-08T10:25:26.778Z,101264.06
2023-01-08T10:27:58.994Z,101257.84
2023-01-08T10:30:40.017Z,101250.63
2023-01-08T10:33:12.835Z,101250.22
2023-01-08T10:35:43.417Z,101251.25
2023-01-08T10:38:27.007Z,101249.03
2023-01-08T10:40:55.240Z,101244.03
2023-01-08T10:43:28.097Z,101240.66
2023-01-08T10:46:01.135Z,101237.13
2023-01-08T10:48:35.386Z,101227.28
2023-01-08T10:51:07.278Z,101232.25
2023-01-08T10:53:35.743Z,101225.25
2023-01-08T10:56:05.763Z,101230.28
2023-01-08T10:58:42.827Z,101229.78
2023-01-08T11:01:16.997Z,101213.38
2023-01-08T11:03:45.154Z,101216.50
2023-01-08T11:06:15.403Z,101222.41
2023-01-08T11:08:51.853Z,101222.88
2023-01-08T11:11:20.114Z,101212.47
2023-01-08T11:13:59.982Z,101202.00
2023-01-08T11:16:38.443Z,101201.78
2023-01-08T11:19:16.510Z,101200.84
2023-01-08T11:21:55.186Z,101208.63
2023-01-08T11:24:27.412Z,101210.34
2023-01-08T11:27:01.444Z,101205.41
2023-01-08T11:29:38.904Z,101206.88
2023-01-08T11:32:26.446Z,101212.88
2023-01-08T11:35:00.401Z,101207.22
2023-01-08T11:37:31.530Z,101199.16
2023-01-08T11:39:59.490Z,101207.56
2023-01-08T11:42:44.216Z,101202.03
2023-01-08T11:45:18.359Z,101213.53
2023-01-08T11:48:01.351Z,101199.81
2023-01-08T11:50:36.583Z,101203.72
2023-01-08T11:53:21.356Z,101192.13
2023-01-08T11:55:59.568Z,101195.84
2023-01-08T11:58:39.469Z,101200.56
2023-01-08T12:01:24.337Z,101189.53
2023-01-08T12:04:10.966Z,101187.50
2023-01-08T12:06:49.127Z,101189.19
2023-01-08T12:09:23.789Z,101187.44
2023-01-08T12:11:58.172Z,101195.00
2023-01-08T12:14:41.425Z,101191.13
2023-01-08T12:17:26.819Z,101175.13
2023-01-08T12:20:13.493Z,101185.47
2023-01-08T12:22:48.667Z,101181.97
2023-01-08T12:25:34.200Z,101184.06
2023-01-08T12:28:16.710Z,101190.66
2023-01-08T12:30:57.971Z,101189.25
2023-01-08T12:33:35.141Z,101181.38
2023-01-08T12:36:10.212Z,101185.59
2023-01-08T12:38:43.327Z,101184.50
2023-01-08T12:41:13.168Z,101182.16
2023-01-08T12:43:53.312Z,101179.31
2023-01-08T12:46:23.999Z,101178.31
2023-01-08T12:48:54.124Z,101180.91
2023-01-08T12:51:30.161Z,101176.53
2023-01-08T12:54:09.285Z,101178.09
2023-01-08T12:56:46.868Z,101183.38
2023-01-08T12:59:27.672Z,101180.72
2023-01-08T13:02:02.822Z,101180.63
2023-01-08T13:04:41.280Z,101180.63
2023-01-08T13:07:20.492Z,101169.88
2023-01-08T13:09:57.040Z,101161.25
2023-01-08T13:12:35.066Z,101181.69
2023-01-08T13:15:03.720Z,101174.00
2023-01-08T13:17:32.127Z,101172.41
2023-01-08T13:20:02.990Z,101174.09
2023-01-08T13:22:34.947Z,101167.91
2023-01-08T13:25:12.031Z,101164.47
2023-01-08T13:27:39.955Z,101182.47
2023-01-08T13:30:38.330Z,101183.25
2023-01-08T13:33:39.729Z,101174.59
2023-01-08T13:36:21.075Z,101176.97
2023-01-08T13:39:01.196Z,101157.22
2023-01-08T13:44:02.726Z,101171.47
2023-01-08T13:46:31.405Z,101179.09
2023-01-08T13:49:03.034Z,101179.94
2023-01-08T13:51:41.973Z,101176.38
2023-01-08T13:54:21.766Z,101173.53
2023-01-08T13:56:55.552Z,101175.75
2023-01-08T13:59:37.892Z,101170.09
2023-01-08T14:02:22.523Z,101169.00
2023-01-08T14:04:50.852Z,101172.50
2023-01-08T14:07:19.343Z,101168.16
2023-01-08T14:09:48.647Z,101167.31
2023-01-08T14:12:20.467Z,101161.72
2023-01-08T14:14:51.934Z,101165.88
2023-01-08T14:17:22.723Z,101167.19
2023-01-08T14:19:50.973Z,101160.31
2023-01-08T14:22:21.746Z,101159.66
2023-01-08T14:24:56.817Z,101159.94
2023-01-08T14:27:26.344Z,101150.22
2023-01-08T14:29:54.526Z,101158.53
2023-01-08T14:32:24.505Z,101156.84
2023-01-08T14:34:54.382Z,101132.59
2023-01-08T14:37:22.413Z,101150.22
2023-01-08T14:39:54.679Z,101150.41
2023-01-08T14:42:47.349Z,101148.91
2023-01-08T14:45:21.638Z,101151.09
2023-01-08T14:47:51.534Z,101150.59
2023-01-08T14:50:26.078Z,101151.56
2023-01-08T14:52:56.368Z,101149.13
2023-01-08T14:55:27.981Z,101139.00
2023-01-08T14:57:57.734Z,101154.88
2023-01-08T15:00:29.061Z,101148.13
2023-01-08T15:02:57.550Z,101153.91
2023-01-08T15:05:29.837Z,101155.91
2023-01-08T15:08:01.608Z,101143.78
2023-01-08T15:10:41.074Z,101161.97
2023-01-08T15:13:23.860Z,101151.25
2023-01-08T15:15:57.967Z,101159.09
2023-01-08T15:18:26.690Z,101156.84
2023-01-08T15:20:56.250Z,101156.22
2023-01-08T15:23:35.233Z,101158.06
2023-01-08T15:26:04.849Z,101156.09
2023-01-08T15:28:32.806Z,101148.41
2023-01-08T15:31:00.781Z,101153.88
2023-01-08T15:33:29.083Z,101153.28
2023-01-08T15:35:58.016Z,101152.69
2023-01-08T15:38:26.000Z,101137.44
2023-01-08T15:40:55.287Z,101153.75
2023-01-08T15:43:23.974Z,101147.94
2023-01-08T15:45:52.447Z,101144.59
2023-01-08T15:48:20.447Z,101148.06
2023-01-08T15:50:48.504Z,101144.38
2023-01-08T15:53:22.475Z,101145.97
2023-01-08T15:55:50.732Z,101155.09
2023-01-08T15:58:19.101Z,101152.38
2023-01-08T16:00:48.503Z,101148.81
2023-01-08T16:03:17.392Z,101158.53
2023-01-08T16:05:45.412Z,101150.28
2023-01-08T16:08:13.356Z,101146.06
2023-01-08T16:10:41.305Z,101142.78
2023-01-08T16:13:11.864Z,101142.91
2023-01-08T16:15:40.317Z,101153.41
2023-01-08T16:18:09.639Z,101146.84
2023-01-08T16:20:37.914Z,101149.59
2023-01-08T16:23:05.952Z,101153.19
2023-01-08T16:25:33.944Z,101153.41
2023-01-08T16:28:03.158Z,101156.06
2023-01-08T16:30:31.135Z,101152.88
2023-01-08T16:32:59.036Z,101144.66
2023-01-08T16:35:28.384Z,101152.47
2023-01-08T16:37:56.632Z,101158.59
2023-01-08T16:40:24.601Z,101156.34
2023-01-08T16:42:52.566Z,101159.06
2023-01-08T16:45:20.539Z,101156.63
2023-01-08T16:47:48.460Z,101161.97
2023-01-08T16:50:16.592Z,101152.84
2023-01-08T16:52:45.894Z,101160.25
2023-01-08T16:55:13.838Z,101157.66
2023-01-08T16:57:41.973Z,101157.81
2023-01-08T17:00:11.172Z,101157.84
2023-01-08T17:02:39.243Z,101149.44
2023-01-08T17:05:08.125Z,101155.56
2023-01-08T17:07:36.361Z,101158.09
2023-01-08T17:10:06.700Z,101154.72
2023-01-08T17:12:34.626Z,101158.28
2023-01-08T17:15:03.116Z,101146.44
2023-01-08T17:17:31.056Z,101144.06
2023-01-08T17:19:59.008Z,101151.19
2023-01-08T17:22:26.993Z,101150.53
2023-01-08T17:24:54.959Z,101147.16
2023-01-08T17:27:24.663Z,101149.69
2023-01-08T17:29:52.588Z,101150.66
2023-01-08T17:32:21.676Z,101145.66
2023-01-08T17:34:49.611Z,101138.63
2023-01-08T17:37:17.572Z,101142.06
2023-01-08T17:39:45.785Z,101149.16
2023-01-08T17:42:27.696Z,101144.09
2023-01-08T17:45:00.474Z,101140.13
2023-01-08T17:47:28.599Z,101136.28
2023-01-08T17:49:57.595Z,101135.75
2023-01-08T17:52:26.935Z,101132.41
2023-01-08T17:54:55.070Z,101136.09
2023-01-08T17:57:23.166Z,101134.78
2023-01-08T17:59:51.489Z,101128.63
2023-01-08T18:02:21.117Z,101129.38
2023-01-08T18:04:49.146Z,101133.41
2023-01-08T18:07:17.255Z,101132.22
2023-01-08T18:09:45.893Z,101133.00
2023-01-08T18:12:13.810Z,101124.38
2023-01-08T18:14:42.092Z,101126.94
2023-01-08T18:17:10.028Z,101127.63
2023-01-08T18:19:39.548Z,101129.44
2023-01-08T18:22:07.527Z,101110.13
2023-01-08T18:24:35.814Z,101130.44
2023-01-08T18:27:03.756Z,101128.94
2023-01-08T18:29:31.689Z,101126.44
2023-01-08T18:31:59.683Z,101124.78
2023-01-08T18:34:27.761Z,101098.59
2023-01-08T18:36:57.130Z,101055.59
2023-01-08T18:39:26.659Z,101109.72
2023-01-08T18:42:11.788Z,101130.91
2023-01-08T18:44:39.820Z,101123.25
2023-01-08T18:47:07.753Z,101128.72
2023-01-08T18:49:35.901Z,101130.88
2023-01-08T18:52:06.052Z,101129.19
2023-01-08T18:54:35.394Z,101120.84
2023-01-08T18:57:03.564Z,101129.53
2023-01-08T18:59:31.527Z,101128.00
2023-01-08T19:01:59.608Z,101129.53
2023-01-08T19:04:27.627Z,101138.81
2023-01-08T19:06:55.750Z,101128.75
2023-01-08T19:09:25.303Z,101142.34
2023-01-08T19:11:53.276Z,101140.66
2023-01-08T19:14:21.205Z,101136.59
2023-01-08T19:16:51.526Z,101138.38
2023-01-08T19:19:19.976Z,101136.88
2023-01-08T19:21:47.928Z,101138.84
2023-01-08T19:24:16.043Z,101132.19
2023-01-08T19:26:45.447Z,101127.25
2023-01-08T19:29:13.940Z,101138.38
2023-01-08T19:31:41.990Z,101139.47
2023-01-08T19:34:11.239Z,101140.22
2023-01-08T19:36:39.441Z,101130.16
2023-01-08T19:39:11.143Z,101141.94
2023-01-08T19:41:56.892Z,101144.34
2023-01-08T19:44:26.354Z,101143.38
2023-01-08T19:46:54.576Z,101140.13
2023-01-08T19:49:23.632Z,101130.88
2023-01-08T19:51:52.743Z,101134.94
2023-01-08T19:54:24.709Z,101124.84
2023-01-08T19:56:52.787Z,101138.34
2023-01-08T19:59:20.830Z,101109.53
2023-01-08T20:01:50.278Z,101130.66
2023-01-08T20:04:18.327Z,101122.31
2023-01-08T20:06:46.264Z,101125.88
2023-01-08T20:09:14.209Z,101125.97
2023-01-08T20:11:42.195Z,101124.53
2023-01-08T20:14:10.264Z,101118.41
2023-01-08T20:16:38.261Z,101114.13
2023-01-08T20:19:08.214Z,101114.97
2023-01-08T20:21:36.166Z,101122.66
2023-01-08T20:24:09.086Z,101120.44
2023-01-08T20:26:37.849Z,101128.75
2023-01-08T20:29:05.897Z,101099.44
2023-01-08T20:31:34.648Z,101108.19
2023-01-08T20:34:04.168Z,101129.47
2023-01-08T20:36:35.089Z,101121.56
2023-01-08T20:39:05.224Z,101125.72
2023-01-08T20:41:33.180Z,101118.84
2023-01-08T20:44:03.726Z,101134.91
2023-01-08T20:46:31.669Z,101130.63
2023-01-08T20:49:03.609Z,101130.50
2023-01-08T20:51:35.107Z,101123.38
2023-01-08T20:54:04.494Z,101119.88
2023-01-08T20:56:32.525Z,101124.16
2023-01-08T20:59:02.601Z,101122.53
2023-01-08T21:01:33.925Z,101118.25
2023-01-08T21:04:03.477Z,101117.53
2023-01-08T21:06:32.933Z,101127.56
2023-01-08T21:09:06.705Z,101130.88
2023-01-08T21:11:35.401Z,101135.09
2023-01-08T21:14:03.388Z,101124.16
2023-01-08T21:16:34.838Z,101142.94
2023-01-08T21:19:03.588Z,101148.09
2023-01-08T21:21:33.522Z,101146.41
2023-01-08T21:24:05.465Z,101146.38
2023-01-08T21:26:34.624Z,101139.75
2023-01-08T21:29:03.967Z,101139.53
2023-01-08T21:31:32.018Z,101144.66
2023-01-08T21:34:01.502Z,101126.81
2023-01-08T21:36:31.462Z,101152.16
2023-01-08T21:39:01.004Z,101141.09
2023-01-08T21:41:48.513Z,101143.63
2023-01-08T21:44:37.368Z,101148.16
2023-01-08T21:47:06.899Z,101152.22
2023-01-08T21:49:36.069Z,101161.69
2023-01-08T21:52:21.370Z,101155.72
2023-01-08T21:54:49.326Z,101159.09
2023-01-08T21:57:18.763Z,101154.78
2023-01-08T21:59:49.631Z,101149.03
2023-01-08T22:02:20.324Z,101132.16
2023-01-08T22:04:48.461Z,101145.72
2023-01-08T22:07:17.843Z,101140.53
2023-01-08T22:09:45.797Z,101119.25
2023-01-08T22:12:14.197Z,101140.41
2023-01-08T22:14:43.602Z,101145.47
2023-01-08T22:17:11.706Z,101143.63
2023-01-08T22:19:41.317Z,101145.34
2023-01-08T22:22:10.974Z,101130.44
2023-01-08T22:24:39.540Z,101126.75
2023-01-08T22:27:08.095Z,101088.41
2023-01-08T22:29:36.253Z,101136.47
2023-01-08T22:32:05.927Z,101128.75
2023-01-08T22:34:34.318Z,101130.19
2023-01-08T22:37:02.737Z,101119.19
2023-01-08T22:39:30.985Z,101122.47
2023-01-08T22:41:58.931Z,101114.75
2023-01-08T22:44:26.910Z,101112.25
2023-01-08T22:46:54.856Z,101107.94
2023-01-08T22:49:24.177Z,101118.16
2023-01-08T22:51:52.213Z,101122.44
2023-01-08T22:54:20.147Z,101115.78
2023-01-08T22:56:48.092Z,101106.53
2023-01-08T22:59:16.032Z,101110.13
2023-01-08T23:01:43.961Z,101105.06
2023-01-08T23:04:11.972Z,101111.75
2023-01-08T23:06:41.316Z,101109.19
2023-01-08T23:09:09.307Z,101105.00
2023-01-08T23:11:38.003Z,101111.75
2023-01-08T23:14:06.115Z,101100.97
2023-01-08T23:16:34.305Z,101096.81
2023-01-08T23:19:02.547Z,101111.38
2023-01-08T23:21:30.573Z,101111.38
2023-01-08T23:23:59.899Z,101104.56
2023-01-08T23:26:30.387Z,101101.22
2023-01-08T23:28:59.232Z,101109.97
2023-01-08T23:31:29.077Z,101095.88
2023-01-08T23:33:57.313Z,101106.69
2023-01-08T23:36:25.902Z,101103.44
2023-01-08T23:38:55.972Z,101110.84
2023-01-08T23:41:33.802Z,101108.31
2023-01-08T23:44:06.101Z,101115.50
2023-01-08T23:46:34.814Z,101117.06
2023-01-08T23:49:02.817Z,101112.69
2023-01-08T23:51:30.735Z,101110.09
2023-01-08T23:53:58.649Z,101105.84
2023-01-08T23:56:28.872Z,101101.69
2023-01-08T23:58:58.060Z,101111.84
